ΕΜΥ, Εθνική Μετεωρολογική Υπηρεσία - Δελτία Καιρού, Προγνώσεις

ΑΕΡΟΝΑΥΤΙΛΙΑ

GREEK AIRPORTS CODES

LGAT 242130Z AUTO 24011KT //// // ////// 15/09 Q1010 RE//=

EUROPEAN AIRPORTS CODES

LFPO 242130Z 24008KT 9999 SCT014 SCT040 BKN086 02/01 Q0998NOSIG=